sensor_id;sensor_type;location;lat;lon;timestamp;temperature;humidity
5960;DHT22;3006;50.956;7.002;2023-06-01T00:01:03;20.20;99.90
5960;DHT22;3006;50.956;7.002;2023-06-01T00:03:31;20.20;99.90
5960;DHT22;3006;50.956;7.002;2023-06-01T00:06:00;20.10;99.90
5960;DHT22;3006;50.956;7.002;2023-06-01T00:08:28;20.10;99.90
5960;DHT22;3006;50.956;7.002;2023-06-01T00:10:56;20.00;99.90
5960;DHT22;3006;50.956;7.002;2023-06-01T00:13:24;19.90;99.90
5960;DHT22;3006;50.956;7.002;2023-06-01T00:15:54;19.80;99.90
5960;DHT22;3006;50.956;7.002;2023-06-01T00:18:23;19.80;99.90
5960;DHT22;3006;50.956;7.002;2023-06-01T00:20:53;19.90;99.90
5960;DHT22;3006;50.956;7.002;2023-06-01T00:23:21;19.90;99.90
5960;DHT22;3006;50.956;7.002;2023-06-01T00:25:49;19.80;99.90
5960;DHT22;3006;50.956;7.002;2023-06-01T00:28:17;19.80;99.90
5960;DHT22;3006;50.956;7.002;2023-06-01T00:30:45;19.70;99.90
5960;DHT22;3006;50.956;7.002;2023-06-01T00:33:14;19.70;99.90
5960;DHT22;3006;50.956;7.002;2023-06-01T00:35:42;19.70;99.90
5960;DHT22;3006;50.956;7.002;2023-06-01T00:38:11;19.70;99.90
5960;DHT22;3006;50.956;7.002;2023-06-01T00:40:40;19.70;99.90
5960;DHT22;3006;50.956;7.002;2023-06-01T00:43:08;19.60;99.90
5960;DHT22;3006;50.956;7.002;2023-06-01T00:45:37;19.70;99.90
5960;DHT22;3006;50.956;7.002;2023-06-01T00:48:05;19.60;99.90
5960;DHT22;3006;50.956;7.002;2023-06-01T00:50:35;19.60;99.90
5960;DHT22;3006;50.956;7.002;2023-06-01T00:53:07;19.60;99.90
5960;DHT22;3006;50.956;7.002;2023-06-01T00:55:38;19.60;99.90
5960;DHT22;3006;50.956;7.002;2023-06-01T00:58:06;19.50;99.90
5960;DHT22;3006;50.956;7.002;2023-06-01T01:00:35;19.40;99.90
5960;DHT22;3006;50.956;7.002;2023-06-01T01:03:04;19.40;99.90
5960;DHT22;3006;50.956;7.002;2023-06-01T01:05:37;19.40;99.90
5960;DHT22;3006;50.956;7.002;2023-06-01T01:08:12;19.40;99.90
5960;DHT22;3006;50.956;7.002;2023-06-01T01:10:47;19.30;99.90
5960;DHT22;3006;50.956;7.002;2023-06-01T01:13:22;19.20;99.90
5960;DHT22;3006;50.956;7.002;2023-06-01T01:15:55;19.10;99.90
5960;DHT22;3006;50.956;7.002;2023-06-01T01:18:39;19.10;99.90
5960;DHT22;3006;50.956;7.002;2023-06-01T01:21:11;19.20;99.90
5960;DHT22;3006;50.956;7.002;2023-06-01T01:24:23;19.10;99.90
5960;DHT22;3006;50.956;7.002;2023-06-01T01:27:06;19.10;99.90
5960;DHT22;3006;50.956;7.002;2023-06-01T01:29:40;19.00;99.90
5960;DHT22;3006;50.956;7.002;2023-06-01T01:32:10;19.10;99.90
5960;DHT22;3006;50.956;7.002;2023-06-01T01:34:40;19.00;99.90
5960;DHT22;3006;50.956;7.002;2023-06-01T01:37:08;19.00;99.90
5960;DHT22;3006;50.956;7.002;2023-06-01T01:39:37;19.00;99.90
5960;DHT22;3006;50.956;7.002;2023-06-01T01:42:06;19.00;99.90
5960;DHT22;3006;50.956;7.002;2023-06-01T01:44:34;18.90;99.90
5960;DHT22;3006;50.956;7.002;2023-06-01T01:47:07;18.90;99.90
5960;DHT22;3006;50.956;7.002;2023-06-01T01:49:42;18.80;99.90
5960;DHT22;3006;50.956;7.002;2023-06-01T01:52:15;18.80;99.90
5960;DHT22;3006;50.956;7.002;2023-06-01T01:54:45;18.80;99.90
5960;DHT22;3006;50.956;7.002;2023-06-01T01:57:14;18.80;99.90
5960;DHT22;3006;50.956;7.002;2023-06-01T01:59:45;18.80;99.90
5960;DHT22;3006;50.956;7.002;2023-06-01T02:02:15;18.70;99.90
5960;DHT22;3006;50.956;7.002;2023-06-01T02:04:44;18.60;99.90
5960;DHT22;3006;50.956;7.002;2023-06-01T02:07:13;18.60;99.90
5960;DHT22;3006;50.956;7.002;2023-06-01T02:09:42;18.60;99.90
5960;DHT22;3006;50.956;7.002;2023-06-01T02:12:11;18.50;99.90
5960;DHT22;3006;50.956;7.002;2023-06-01T02:14:39;18.40;99.90
5960;DHT22;3006;50.956;7.002;2023-06-01T02:17:07;18.40;99.90
5960;DHT22;3006;50.956;7.002;2023-06-01T02:19:37;18.50;99.90
5960;DHT22;3006;50.956;7.002;2023-06-01T02:22:05;18.50;99.90
5960;DHT22;3006;50.956;7.002;2023-06-01T02:24:34;18.50;99.90
5960;DHT22;3006;50.956;7.002;2023-06-01T02:27:02;18.50;99.90
5960;DHT22;3006;50.956;7.002;2023-06-01T02:29:30;18.50;99.90
5960;DHT22;3006;50.956;7.002;2023-06-01T02:31:59;18.50;99.90
5960;DHT22;3006;50.956;7.002;2023-06-01T02:34:27;18.40;99.90
5960;DHT22;3006;50.956;7.002;2023-06-01T02:36:57;18.40;99.90
5960;DHT22;3006;50.956;7.002;2023-06-01T02:39:25;18.40;99.90
5960;DHT22;3006;50.956;7.002;2023-06-01T02:41:54;18.40;99.90
5960;DHT22;3006;50.956;7.002;2023-06-01T02:44:22;18.40;99.90
5960;DHT22;3006;50.956;7.002;2023-06-01T02:46:50;18.30;99.90
5960;DHT22;3006;50.956;7.002;2023-06-01T02:49:18;18.20;99.90
5960;DHT22;3006;50.956;7.002;2023-06-01T02:51:46;18.20;99.90
5960;DHT22;3006;50.956;7.002;2023-06-01T02:54:20;18.20;99.90
5960;DHT22;3006;50.956;7.002;2023-06-01T02:56:48;18.10;99.90
5960;DHT22;3006;50.956;7.002;2023-06-01T02:59:29;18.00;99.90
5960;DHT22;3006;50.956;7.002;2023-06-01T03:02:03;18.00;99.90
5960;DHT22;3006;50.956;7.002;2023-06-01T03:04:32;17.90;99.90
5960;DHT22;3006;50.956;7.002;2023-06-01T03:07:01;17.80;99.90
5960;DHT22;3006;50.956;7.002;2023-06-01T03:09:31;17.80;99.90
5960;DHT22;3006;50.956;7.002;2023-06-01T03:12:31;17.70;99.90
5960;DHT22;3006;50.956;7.002;2023-06-01T03:15:00;17.70;99.90
5960;DHT22;3006;50.956;7.002;2023-06-01T03:17:28;17.60;99.90
5960;DHT22;3006;50.956;7.002;2023-06-01T03:19:56;17.60;99.90
5960;DHT22;3006;50.956;7.002;2023-06-01T03:22:24;17.60;99.90
5960;DHT22;3006;50.956;7.002;2023-06-01T03:24:54;17.60;99.90
5960;DHT22;3006;50.956;7.002;2023-06-01T03:27:29;17.60;99.90
5960;DHT22;3006;50.956;7.002;2023-06-01T03:29:58;17.50;99.90
5960;DHT22;3006;50.956;7.002;2023-06-01T03:32:28;17.50;99.90
5960;DHT22;3006;50.956;7.002;2023-06-01T03:34:59;17.40;99.90
5960;DHT22;3006;50.956;7.002;2023-06-01T03:37:27;17.40;99.90
5960;DHT22;3006;50.956;7.002;2023-06-01T03:39:57;17.30;99.90
5960;DHT22;3006;50.956;7.002;2023-06-01T03:42:30;17.30;99.90
5960;DHT22;3006;50.956;7.002;2023-06-01T03:44:58;17.40;99.90
5960;DHT22;3006;50.956;7.002;2023-06-01T03:47:27;17.30;99.90
5960;DHT22;3006;50.956;7.002;2023-06-01T03:49:55;17.30;99.90
5960;DHT22;3006;50.956;7.002;2023-06-01T03:52:25;17.30;99.90
5960;DHT22;3006;50.956;7.002;2023-06-01T03:54:54;17.30;99.90
5960;DHT22;3006;50.956;7.002;2023-06-01T03:57:45;17.20;99.90
5960;DHT22;3006;50.956;7.002;2023-06-01T04:00:14;17.20;99.90
5960;DHT22;3006;50.956;7.002;2023-06-01T04:02:53;17.20;99.90
5960;DHT22;3006;50.956;7.002;2023-06-01T04:05:24;17.10;99.90
5960;DHT22;3006;50.956;7.002;2023-06-01T04:07:54;17.00;99.90
5960;DHT22;3006;50.956;7.002;2023-06-01T04:10:23;16.90;99.90
5960;DHT22;3006;50.956;7.002;2023-06-01T04:12:53;17.00;99.90
5960;DHT22;3006;50.956;7.002;2023-06-01T04:15:25;17.00;99.90
5960;DHT22;3006;50.956;7.002;2023-06-01T04:17:53;16.90;99.90
5960;DHT22;3006;50.956;7.002;2023-06-01T04:20:22;16.90;99.90
5960;DHT22;3006;50.956;7.002;2023-06-01T04:22:51;16.90;99.90
5960;DHT22;3006;50.956;7.002;2023-06-01T04:25:20;16.90;99.90
5960;DHT22;3006;50.956;7.002;2023-06-01T04:27:50;16.90;99.90
5960;DHT22;3006;50.956;7.002;2023-06-01T04:30:24;16.90;99.90
5960;DHT22;3006;50.956;7.002;2023-06-01T04:32:53;16.90;99.90
5960;DHT22;3006;50.956;7.002;2023-06-01T04:35:22;16.90;99.90
5960;DHT22;3006;50.956;7.002;2023-06-01T04:37:50;16.80;99.90
5960;DHT22;3006;50.956;7.002;2023-06-01T04:40:18;16.80;99.90
5960;DHT22;3006;50.956;7.002;2023-06-01T04:42:46;16.70;99.90
5960;DHT22;3006;50.956;7.002;2023-06-01T04:45:17;16.70;99.90
5960;DHT22;3006;50.956;7.002;2023-06-01T04:47:47;16.70;99.90
5960;DHT22;3006;50.956;7.002;2023-06-01T04:50:20;16.70;99.90
5960;DHT22;3006;50.956;7.002;2023-06-01T04:52:48;16.80;99.90
5960;DHT22;3006;50.956;7.002;2023-06-01T04:55:17;16.70;99.90
5960;DHT22;3006;50.956;7.002;2023-06-01T04:57:45;16.70;99.90
5960;DHT22;3006;50.956;7.002;2023-06-01T05:00:14;16.60;99.90
5960;DHT22;3006;50.956;7.002;2023-06-01T05:02:47;16.60;99.90
5960;DHT22;3006;50.956;7.002;2023-06-01T05:05:19;16.50;99.90
5960;DHT22;3006;50.956;7.002;2023-06-01T05:07:47;16.50;99.90
5960;DHT22;3006;50.956;7.002;2023-06-01T05:10:16;16.50;99.90
5960;DHT22;3006;50.956;7.002;2023-06-01T05:12:47;16.60;99.90
5960;DHT22;3006;50.956;7.002;2023-06-01T05:15:17;16.60;99.90
5960;DHT22;3006;50.956;7.002;2023-06-01T05:17:46;16.60;99.90
5960;DHT22;3006;50.956;7.002;2023-06-01T05:20:19;16.70;99.90
5960;DHT22;3006;50.956;7.002;2023-06-01T05:22:56;16.70;99.90
5960;DHT22;3006;50.956;7.002;2023-06-01T05:25:24;16.80;99.90
5960;DHT22;3006;50.956;7.002;2023-06-01T05:27:52;16.80;99.90
5960;DHT22;3006;50.956;7.002;2023-06-01T05:30:22;16.70;99.90
5960;DHT22;3006;50.956;7.002;2023-06-01T05:32:52;16.70;99.90
5960;DHT22;3006;50.956;7.002;2023-06-01T05:35:22;16.70;99.90
5960;DHT22;3006;50.956;7.002;2023-06-01T05:37:51;16.70;99.90
5960;DHT22;3006;50.956;7.002;2023-06-01T05:40:19;16.60;99.90
5960;DHT22;3006;50.956;7.002;2023-06-01T05:42:48;16.40;99.90
5960;DHT22;3006;50.956;7.002;2023-06-01T05:45:16;16.40;99.90
5960;DHT22;3006;50.956;7.002;2023-06-01T05:47:44;16.40;99.90
5960;DHT22;3006;50.956;7.002;2023-06-01T05:50:14;16.40;99.90
5960;DHT22;3006;50.956;7.002;2023-06-01T05:52:42;16.40;99.90
5960;DHT22;3006;50.956;7.002;2023-06-01T05:55:10;16.40;99.90
5960;DHT22;3006;50.956;7.002;2023-06-01T05:57:40;16.40;99.90
5960;DHT22;3006;50.956;7.002;2023-06-01T06:00:10;16.40;99.90
5960;DHT22;3006;50.956;7.002;2023-06-01T06:02:42;16.40;99.90
5960;DHT22;3006;50.956;7.002;2023-06-01T06:05:11;16.50;99.90
5960;DHT22;3006;50.956;7.002;2023-06-01T06:07:40;16.60;99.90
5960;DHT22;3006;50.956;7.002;2023-06-01T06:10:09;16.60;99.90
5960;DHT22;3006;50.956;7.002;2023-06-01T06:12:37;16.40;99.90
5960;DHT22;3006;50.956;7.002;2023-06-01T06:15:06;16.40;99.90
5960;DHT22;3006;50.956;7.002;2023-06-01T06:17:34;16.40;99.90
5960;DHT22;3006;50.956;7.002;2023-06-01T06:20:03;16.50;99.90
5960;DHT22;3006;50.956;7.002;2023-06-01T06:22:34;16.50;99.90
5960;DHT22;3006;50.956;7.002;2023-06-01T06:25:04;16.50;99.90
5960;DHT22;3006;50.956;7.002;2023-06-01T06:27:33;16.50;99.90
5960;DHT22;3006;50.956;7.002;2023-06-01T06:30:01;16.50;99.90
5960;DHT22;3006;50.956;7.002;2023-06-01T06:32:29;16.60;99.90
5960;DHT22;3006;50.956;7.002;2023-06-01T06:34:57;16.60;99.90
5960;DHT22;3006;50.956;7.002;2023-06-01T06:37:25;16.60;99.90
5960;DHT22;3006;50.956;7.002;2023-06-01T06:39:53;16.60;99.90
5960;DHT22;3006;50.956;7.002;2023-06-01T06:42:23;16.50;99.90
5960;DHT22;3006;50.956;7.002;2023-06-01T06:44:52;16.40;99.90
5960;DHT22;3006;50.956;7.002;2023-06-01T06:47:20;16.40;99.90
5960;DHT22;3006;50.956;7.002;2023-06-01T06:49:48;16.50;99.90
5960;DHT22;3006;50.956;7.002;2023-06-01T06:52:16;16.60;99.90
5960;DHT22;3006;50.956;7.002;2023-06-01T06:54:44;16.50;99.90
5960;DHT22;3006;50.956;7.002;2023-06-01T06:57:13;16.50;99.90
5960;DHT22;3006;50.956;7.002;2023-06-01T06:59:42;16.50;99.90
5960;DHT22;3006;50.956;7.002;2023-06-01T07:02:10;16.50;99.90
5960;DHT22;3006;50.956;7.002;2023-06-01T07:04:39;16.40;99.90
5960;DHT22;3006;50.956;7.002;2023-06-01T07:07:07;16.40;99.90
5960;DHT22;3006;50.956;7.002;2023-06-01T07:09:35;16.40;99.90
5960;DHT22;3006;50.956;7.002;2023-06-01T07:12:03;16.60;99.90
5960;DHT22;3006;50.956;7.002;2023-06-01T07:14:32;16.50;99.90
5960;DHT22;3006;50.956;7.002;2023-06-01T07:17:03;16.50;99.90
5960;DHT22;3006;50.956;7.002;2023-06-01T07:19:31;16.40;99.90
5960;DHT22;3006;50.956;7.002;2023-06-01T07:22:00;16.40;99.90
5960;DHT22;3006;50.956;7.002;2023-06-01T07:24:29;16.40;99.90
5960;DHT22;3006;50.956;7.002;2023-06-01T07:26:57;16.50;99.90
5960;DHT22;3006;50.956;7.002;2023-06-01T07:29:25;16.50;99.90
5960;DHT22;3006;50.956;7.002;2023-06-01T07:31:54;16.50;99.90
5960;DHT22;3006;50.956;7.002;2023-06-01T07:34:23;16.50;99.90
5960;DHT22;3006;50.956;7.002;2023-06-01T07:36:52;16.50;99.90
5960;DHT22;3006;50.956;7.002;2023-06-01T07:39:30;16.50;99.90
5960;DHT22;3006;50.956;7.002;2023-06-01T07:41:58;16.60;99.90
5960;DHT22;3006;50.956;7.002;2023-06-01T07:44:26;16.70;99.90
5960;DHT22;3006;50.956;7.002;2023-06-01T07:46:55;16.60;99.90
5960;DHT22;3006;50.956;7.002;2023-06-01T07:49:24;16.60;99.90
5960;DHT22;3006;50.956;7.002;2023-06-01T07:51:52;16.70;99.90
5960;DHT22;3006;50.956;7.002;2023-06-01T07:54:20;16.70;99.90
5960;DHT22;3006;50.956;7.002;2023-06-01T07:56:48;16.70;99.90
5960;DHT22;3006;50.956;7.002;2023-06-01T07:59:17;16.70;99.90
5960;DHT22;3006;50.956;7.002;2023-06-01T08:01:45;16.70;99.90
5960;DHT22;3006;50.956;7.002;2023-06-01T08:04:14;16.80;99.90
5960;DHT22;3006;50.956;7.002;2023-06-01T08:06:44;16.80;99.90
5960;DHT22;3006;50.956;7.002;2023-06-01T08:09:12;16.60;99.90
5960;DHT22;3006;50.956;7.002;2023-06-01T08:11:40;16.40;99.90
5960;DHT22;3006;50.956;7.002;2023-06-01T08:14:09;16.40;99.90
5960;DHT22;3006;50.956;7.002;2023-06-01T08:16:38;16.50;99.90
5960;DHT22;3006;50.956;7.002;2023-06-01T08:19:06;16.50;99.90
5960;DHT22;3006;50.956;7.002;2023-06-01T08:21:34;16.50;99.90
5960;DHT22;3006;50.956;7.002;2023-06-01T08:24:04;16.60;99.90
5960;DHT22;3006;50.956;7.002;2023-06-01T08:26:32;16.60;99.90
5960;DHT22;3006;50.956;7.002;2023-06-01T08:29:01;16.70;99.90
5960;DHT22;3006;50.956;7.002;2023-06-01T08:31:30;16.50;99.90
5960;DHT22;3006;50.956;7.002;2023-06-01T08:33:58;16.60;99.90
5960;DHT22;3006;50.956;7.002;2023-06-01T08:36:26;16.60;99.90
5960;DHT22;3006;50.956;7.002;2023-06-01T08:38:54;16.60;99.90
5960;DHT22;3006;50.956;7.002;2023-06-01T08:41:31;16.60;99.90
5960;DHT22;3006;50.956;7.002;2023-06-01T08:44:04;16.70;99.90
5960;DHT22;3006;50.956;7.002;2023-06-01T08:46:33;16.60;99.90
5960;DHT22;3006;50.956;7.002;2023-06-01T08:49:02;16.50;99.90
5960;DHT22;3006;50.956;7.002;2023-06-01T08:51:33;16.50;99.90
5960;DHT22;3006;50.956;7.002;2023-06-01T08:54:04;16.50;99.90
5960;DHT22;3006;50.956;7.002;2023-06-01T08:56:35;16.60;99.90
5960;DHT22;3006;50.956;7.002;2023-06-01T08:59:03;16.60;99.90
5960;DHT22;3006;50.956;7.002;2023-06-01T09:01:32;16.60;99.90
5960;DHT22;3006;50.956;7.002;2023-06-01T09:04:00;16.80;99.90
5960;DHT22;3006;50.956;7.002;2023-06-01T09:06:28;16.70;99.90
5960;DHT22;3006;50.956;7.002;2023-06-01T09:08:56;16.70;99.90
5960;DHT22;3006;50.956;7.002;2023-06-01T09:11:26;16.70;99.90
5960;DHT22;3006;50.956;7.002;2023-06-01T09:13:56;16.90;99.90
5960;DHT22;3006;50.956;7.002;2023-06-01T09:16:35;16.90;99.90
5960;DHT22;3006;50.956;7.002;2023-06-01T09:19:03;17.00;99.90
5960;DHT22;3006;50.956;7.002;2023-06-01T09:21:31;17.00;99.90
5960;DHT22;3006;50.956;7.002;2023-06-01T09:24:17;17.10;99.90
5960;DHT22;3006;50.956;7.002;2023-06-01T09:26:48;17.20;99.90
5960;DHT22;3006;50.956;7.002;2023-06-01T09:29:17;17.30;99.90
5960;DHT22;3006;50.956;7.002;2023-06-01T09:31:46;17.30;99.90
5960;DHT22;3006;50.956;7.002;2023-06-01T09:34:15;17.20;99.90
5960;DHT22;3006;50.956;7.002;2023-06-01T09:36:46;17.20;99.90
5960;DHT22;3006;50.956;7.002;2023-06-01T09:39:16;17.20;99.90
5960;DHT22;3006;50.956;7.002;2023-06-01T09:41:49;17.10;99.90
5960;DHT22;3006;50.956;7.002;2023-06-01T09:44:26;17.10;99.90
5960;DHT22;3006;50.956;7.002;2023-06-01T09:46:56;17.20;99.90
5960;DHT22;3006;50.956;7.002;2023-06-01T09:49:25;17.30;99.90
5960;DHT22;3006;50.956;7.002;2023-06-01T09:52:08;17.30;99.90
5960;DHT22;3006;50.956;7.002;2023-06-01T09:54:40;17.40;99.90
5960;DHT22;3006;50.956;7.002;2023-06-01T09:57:09;17.40;99.90
5960;DHT22;3006;50.956;7.002;2023-06-01T09:59:41;17.40;99.90
5960;DHT22;3006;50.956;7.002;2023-06-01T10:02:14;17.40;99.90
5960;DHT22;3006;50.956;7.002;2023-06-01T10:04:46;17.40;99.90
5960;DHT22;3006;50.956;7.002;2023-06-01T10:07:15;17.50;99.90
5960;DHT22;3006;50.956;7.002;2023-06-01T10:09:50;17.50;99.90
5960;DHT22;3006;50.956;7.002;2023-06-01T10:12:18;17.60;99.90
5960;DHT22;3006;50.956;7.002;2023-06-01T10:14:48;17.70;99.90
5960;DHT22;3006;50.956;7.002;2023-06-01T10:17:18;17.70;99.90
5960;DHT22;3006;50.956;7.002;2023-06-01T10:19:47;17.90;99.90
5960;DHT22;3006;50.956;7.002;2023-06-01T10:22:16;17.90;99.90
5960;DHT22;3006;50.956;7.002;2023-06-01T10:24:45;17.80;99.90
5960;DHT22;3006;50.956;7.002;2023-06-01T10:27:18;17.90;99.90
5960;DHT22;3006;50.956;7.002;2023-06-01T10:29:49;17.90;99.90
5960;DHT22;3006;50.956;7.002;2023-06-01T10:32:41;18.00;99.90
5960;DHT22;3006;50.956;7.002;2023-06-01T10:38:28;18.10;99.90
5960;DHT22;3006;50.956;7.002;2023-06-01T10:41:25;18.20;99.90
5960;DHT22;3006;50.956;7.002;2023-06-01T10:43:54;18.30;99.90
5960;DHT22;3006;50.956;7.002;2023-06-01T10:46:41;18.30;99.90
5960;DHT22;3006;50.956;7.002;2023-06-01T10:49:11;18.30;99.90
5960;DHT22;3006;50.956;7.002;2023-06-01T10:51:40;18.40;99.90
5960;DHT22;3006;50.956;7.002;2023-06-01T10:54:27;18.50;99.90
5960;DHT22;3006;50.956;7.002;2023-06-01T10:57:18;18.50;99.90
5960;DHT22;3006;50.956;7.002;2023-06-01T11:00:08;18.60;99.90
5960;DHT22;3006;50.956;7.002;2023-06-01T11:02:45;18.60;99.90
5960;DHT22;3006;50.956;7.002;2023-06-01T11:05:34;18.70;99.90
5960;DHT22;3006;50.956;7.002;2023-06-01T11:08:03;18.80;99.90
5960;DHT22;3006;50.956;7.002;2023-06-01T11:10:54;18.90;99.90
5960;DHT22;3006;50.956;7.002;2023-06-01T11:13:26;18.90;99.90
5960;DHT22;3006;50.956;7.002;2023-06-01T11:16:28;18.90;99.90
5960;DHT22;3006;50.956;7.002;2023-06-01T11:19:00;19.10;99.90
5960;DHT22;3006;50.956;7.002;2023-06-01T11:21:31;19.10;99.90
5960;DHT22;3006;50.956;7.002;2023-06-01T11:24:05;19.20;99.90
5960;DHT22;3006;50.956;7.002;2023-06-01T11:26:36;19.40;99.90
5960;DHT22;3006;50.956;7.002;2023-06-01T11:29:13;19.40;99.90
5960;DHT22;3006;50.956;7.002;2023-06-01T11:31:43;19.50;99.90
5960;DHT22;3006;50.956;7.002;2023-06-01T11:34:15;19.70;99.90
5960;DHT22;3006;50.956;7.002;2023-06-01T11:36:46;19.70;99.90
5960;DHT22;3006;50.956;7.002;2023-06-01T11:39:23;19.70;99.90
5960;DHT22;3006;50.956;7.002;2023-06-01T11:42:02;19.80;99.90
5960;DHT22;3006;50.956;7.002;2023-06-01T11:44:32;19.70;99.90
5960;DHT22;3006;50.956;7.002;2023-06-01T11:47:01;19.80;99.90
5960;DHT22;3006;50.956;7.002;2023-06-01T11:49:31;19.80;99.90
5960;DHT22;3006;50.956;7.002;2023-06-01T11:52:01;19.80;99.90
5960;DHT22;3006;50.956;7.002;2023-06-01T11:54:29;19.80;99.90
5960;DHT22;3006;50.956;7.002;2023-06-01T11:56:57;19.90;99.90
5960;DHT22;3006;50.956;7.002;2023-06-01T11:59:25;19.90;99.90
5960;DHT22;3006;50.956;7.002;2023-06-01T12:01:55;20.00;99.90
5960;DHT22;3006;50.956;7.002;2023-06-01T12:04:24;20.10;99.90
5960;DHT22;3006;50.956;7.002;2023-06-01T12:07:05;20.20;99.40
5960;DHT22;3006;50.956;7.002;2023-06-01T12:09:34;20.40;99.40
5960;DHT22;3006;50.956;7.002;2023-06-01T12:12:02;20.40;99.30
5960;DHT22;3006;50.956;7.002;2023-06-01T12:14:32;20.50;99.00
5960;DHT22;3006;50.956;7.002;2023-06-01T12:17:00;20.60;99.30
5960;DHT22;3006;50.956;7.002;2023-06-01T12:19:30;20.60;98.90
5960;DHT22;3006;50.956;7.002;2023-06-01T12:21:59;20.70;98.90
5960;DHT22;3006;50.956;7.002;2023-06-01T12:24:32;20.90;98.20
5960;DHT22;3006;50.956;7.002;2023-06-01T12:27:01;20.90;98.50
5960;DHT22;3006;50.956;7.002;2023-06-01T12:29:40;20.90;98.80
5960;DHT22;3006;50.956;7.002;2023-06-01T12:32:10;20.90;98.90
5960;DHT22;3006;50.956;7.002;2023-06-01T12:34:41;21.00;98.60
5960;DHT22;3006;50.956;7.002;2023-06-01T12:37:16;21.10;98.90
5960;DHT22;3006;50.956;7.002;2023-06-01T12:39:53;21.10;99.20
5960;DHT22;3006;50.956;7.002;2023-06-01T12:42:33;21.10;99.20
5960;DHT22;3006;50.956;7.002;2023-06-01T12:45:03;21.20;98.90
5960;DHT22;3006;50.956;7.002;2023-06-01T12:47:36;21.30;98.50
5960;DHT22;3006;50.956;7.002;2023-06-01T12:50:06;21.40;98.40
5960;DHT22;3006;50.956;7.002;2023-06-01T12:52:35;21.50;98.50
5960;DHT22;3006;50.956;7.002;2023-06-01T12:55:06;21.50;98.10
5960;DHT22;3006;50.956;7.002;2023-06-01T12:57:36;21.80;98.30
5960;DHT22;3006;50.956;7.002;2023-06-01T13:00:05;22.00;98.00
5960;DHT22;3006;50.956;7.002;2023-06-01T13:02:34;22.20;97.10
5960;DHT22;3006;50.956;7.002;2023-06-01T13:05:03;22.00;96.40
5960;DHT22;3006;50.956;7.002;2023-06-01T13:07:33;22.10;96.10
5960;DHT22;3006;50.956;7.002;2023-06-01T13:10:01;22.20;95.40
5960;DHT22;3006;50.956;7.002;2023-06-01T13:12:30;22.20;95.30
5960;DHT22;3006;50.956;7.002;2023-06-01T13:14:59;22.10;95.80
5960;DHT22;3006;50.956;7.002;2023-06-01T13:17:27;22.30;95.40
5960;DHT22;3006;50.956;7.002;2023-06-01T13:19:55;22.40;95.10
5960;DHT22;3006;50.956;7.002;2023-06-01T13:22:24;22.60;94.90
5960;DHT22;3006;50.956;7.002;2023-06-01T13:24:52;22.70;95.00
5960;DHT22;3006;50.956;7.002;2023-06-01T13:27:32;22.70;94.70
5960;DHT22;3006;50.956;7.002;2023-06-01T13:30:01;22.90;94.70
5960;DHT22;3006;50.956;7.002;2023-06-01T13:32:31;23.00;94.60
5960;DHT22;3006;50.956;7.002;2023-06-01T13:35:00;23.00;94.80
5960;DHT22;3006;50.956;7.002;2023-06-01T13:37:28;23.00;93.60
5960;DHT22;3006;50.956;7.002;2023-06-01T13:39:56;23.10;92.50
5960;DHT22;3006;50.956;7.002;2023-06-01T13:42:24;23.20;92.40
5960;DHT22;3006;50.956;7.002;2023-06-01T13:44:53;23.30;92.20
5960;DHT22;3006;50.956;7.002;2023-06-01T13:47:24;23.30;92.00
5960;DHT22;3006;50.956;7.002;2023-06-01T13:49:52;23.10;91.80
5960;DHT22;3006;50.956;7.002;2023-06-01T13:52:20;23.20;91.70
5960;DHT22;3006;50.956;7.002;2023-06-01T13:54:49;23.20;90.20
5960;DHT22;3006;50.956;7.002;2023-06-01T13:57:18;23.50;90.60
5960;DHT22;3006;50.956;7.002;2023-06-01T13:59:46;23.40;91.00
5960;DHT22;3006;50.956;7.002;2023-06-01T14:02:15;23.50;90.90
5960;DHT22;3006;50.956;7.002;2023-06-01T14:04:43;23.40;91.10
5960;DHT22;3006;50.956;7.002;2023-06-01T14:07:17;23.50;90.40
5960;DHT22;3006;50.956;7.002;2023-06-01T14:09:45;23.60;90.20
5960;DHT22;3006;50.956;7.002;2023-06-01T14:12:13;23.90;90.50
5960;DHT22;3006;50.956;7.002;2023-06-01T14:14:41;24.10;90.00
5960;DHT22;3006;50.956;7.002;2023-06-01T14:17:09;23.80;90.10
5960;DHT22;3006;50.956;7.002;2023-06-01T14:19:39;23.90;90.40
5960;DHT22;3006;50.956;7.002;2023-06-01T14:22:07;24.00;90.20
5960;DHT22;3006;50.956;7.002;2023-06-01T14:24:35;24.20;90.20
5960;DHT22;3006;50.956;7.002;2023-06-01T14:27:03;24.30;90.00
5960;DHT22;3006;50.956;7.002;2023-06-01T14:29:33;24.30;90.10
5960;DHT22;3006;50.956;7.002;2023-06-01T14:32:02;24.50;90.10
5960;DHT22;3006;50.956;7.002;2023-06-01T14:34:30;24.60;89.50
5960;DHT22;3006;50.956;7.002;2023-06-01T14:36:59;24.60;88.90
5960;DHT22;3006;50.956;7.002;2023-06-01T14:39:27;24.40;89.70
5960;DHT22;3006;50.956;7.002;2023-06-01T14:41:56;24.60;90.10
5960;DHT22;3006;50.956;7.002;2023-06-01T14:44:24;24.90;89.50
5960;DHT22;3006;50.956;7.002;2023-06-01T14:46:52;25.00;88.50
5960;DHT22;3006;50.956;7.002;2023-06-01T14:49:20;25.20;88.20
5960;DHT22;3006;50.956;7.002;2023-06-01T14:51:53;25.30;88.00
5960;DHT22;3006;50.956;7.002;2023-06-01T14:54:22;25.30;88.10
5960;DHT22;3006;50.956;7.002;2023-06-01T14:57:03;25.10;87.80
5960;DHT22;3006;50.956;7.002;2023-06-01T14:59:32;24.90;86.90
5960;DHT22;3006;50.956;7.002;2023-06-01T15:02:07;24.80;87.70
5960;DHT22;3006;50.956;7.002;2023-06-01T15:04:35;25.10;88.10
5960;DHT22;3006;50.956;7.002;2023-06-01T15:07:04;25.40;87.70
5960;DHT22;3006;50.956;7.002;2023-06-01T15:09:33;25.60;86.70
5960;DHT22;3006;50.956;7.002;2023-06-01T15:12:01;25.80;86.70
5960;DHT22;3006;50.956;7.002;2023-06-01T15:14:30;26.10;86.80
5960;DHT22;3006;50.956;7.002;2023-06-01T15:16:58;26.20;84.30
5960;DHT22;3006;50.956;7.002;2023-06-01T15:19:26;25.90;84.40
5960;DHT22;3006;50.956;7.002;2023-06-01T15:21:54;25.90;85.00
5960;DHT22;3006;50.956;7.002;2023-06-01T15:24:22;26.00;84.00
5960;DHT22;3006;50.956;7.002;2023-06-01T15:26:52;25.80;84.10
5960;DHT22;3006;50.956;7.002;2023-06-01T15:29:20;25.80;84.00
5960;DHT22;3006;50.956;7.002;2023-06-01T15:31:48;25.50;84.90
5960;DHT22;3006;50.956;7.002;2023-06-01T15:34:16;25.30;85.50
5960;DHT22;3006;50.956;7.002;2023-06-01T15:36:46;25.00;86.30
5960;DHT22;3006;50.956;7.002;2023-06-01T15:39:15;25.00;85.80
5960;DHT22;3006;50.956;7.002;2023-06-01T15:41:43;24.80;85.70
5960;DHT22;3006;50.956;7.002;2023-06-01T15:44:13;24.40;86.20
5960;DHT22;3006;50.956;7.002;2023-06-01T15:46:44;24.30;87.00
5960;DHT22;3006;50.956;7.002;2023-06-01T15:49:12;24.10;86.40
5960;DHT22;3006;50.956;7.002;2023-06-01T15:51:41;24.00;87.50
5960;DHT22;3006;50.956;7.002;2023-06-01T15:54:09;23.90;88.10
5960;DHT22;3006;50.956;7.002;2023-06-01T15:56:37;23.60;87.80
5960;DHT22;3006;50.956;7.002;2023-06-01T15:59:05;23.40;87.80
5960;DHT22;3006;50.956;7.002;2023-06-01T16:01:34;23.40;88.70
5960;DHT22;3006;50.956;7.002;2023-06-01T16:04:03;23.40;89.40
5960;DHT22;3006;50.956;7.002;2023-06-01T16:06:31;23.30;89.80
5960;DHT22;3006;50.956;7.002;2023-06-01T16:09:00;23.40;90.00
5960;DHT22;3006;50.956;7.002;2023-06-01T16:11:28;23.30;89.20
5960;DHT22;3006;50.956;7.002;2023-06-01T16:13:56;23.10;89.30
5960;DHT22;3006;50.956;7.002;2023-06-01T16:16:24;22.90;90.00
5960;DHT22;3006;50.956;7.002;2023-06-01T16:18:53;22.80;90.20
5960;DHT22;3006;50.956;7.002;2023-06-01T16:21:21;22.60;90.40
5960;DHT22;3006;50.956;7.002;2023-06-01T16:23:49;22.50;90.50
5960;DHT22;3006;50.956;7.002;2023-06-01T16:26:17;22.40;91.00